createdAt,value
2022-08-22T00:02:55.978Z,73.52
2022-08-22T00:02:56.461Z,73.28
2022-08-22T00:03:07.259Z,74.72
2022-08-22T00:03:07.476Z,75.03
2022-08-22T00:03:07.477Z,77.80
2022-08-22T00:03:15.477Z,78.23
2022-08-22T00:03:25.124Z,80.30
2022-08-22T00:06:15.254Z,78.65
2022-08-22T00:08:57.353Z,76.00
2022-08-22T00:11:39.378Z,70.15
2022-08-22T00:14:21.133Z,69.35
2022-08-22T00:17:04.548Z,69.67
2022-08-22T00:19:52.427Z,68.92
2022-08-22T00:22:32.912Z,68.63
2022-08-22T00:25:25.644Z,66.94
2022-08-22T00:28:05.894Z,66.70
2022-08-22T00:30:47.819Z,66.65
2022-08-22T00:33:28.720Z,65.69
2022-08-22T00:36:14.404Z,66.01
2022-08-22T00:38:54.018Z,66.31
2022-08-22T00:41:42.068Z,65.50
2022-08-22T00:44:51.039Z,65.17
2022-08-22T00:47:40.709Z,64.90
2022-08-22T00:50:40.951Z,64.44
2022-08-22T00:53:47.016Z,63.97
2022-08-22T00:56:45.970Z,64.09
2022-08-22T00:59:49.578Z,64.36
2022-08-22T01:02:40.800Z,64.69
2022-08-22T01:05:32.580Z,64.83
2022-08-22T01:08:23.469Z,64.85
2022-08-22T01:11:11.447Z,63.59
2022-08-22T01:14:04.885Z,64.02
2022-08-22T01:17:00.549Z,63.78
2022-08-22T01:20:02.323Z,63.87
2022-08-22T01:23:06.119Z,63.19
2022-08-22T01:26:25.576Z,62.63
2022-08-22T01:29:28.213Z,61.86
2022-08-22T01:32:57.072Z,61.46
2022-08-22T01:35:45.905Z,60.97
2022-08-22T01:38:38.363Z,60.21
2022-08-22T01:41:27.704Z,60.15
2022-08-22T01:44:14.816Z,59.72
2022-08-22T01:46:59.702Z,57.53
2022-08-22T01:49:44.556Z,58.67
2022-08-22T01:52:20.043Z,64.06
2022-08-22T01:54:57.766Z,64.66
2022-08-22T01:57:30.114Z,63.17
2022-08-22T02:00:06.593Z,62.17
2022-08-22T02:03:00.359Z,61.72
2022-08-22T02:05:37.379Z,62.35
2022-08-22T02:08:28.319Z,62.35
2022-08-22T02:11:06.921Z,61.75
2022-08-22T02:13:59.818Z,61.51
2022-08-22T02:16:39.440Z,61.06
2022-08-22T02:19:26.946Z,61.11
2022-08-22T02:22:02.800Z,61.02
2022-08-22T02:24:50.644Z,60.62
2022-08-22T02:27:46.859Z,60.75
2022-08-22T02:30:22.660Z,60.38
2022-08-22T02:33:05.810Z,60.27
2022-08-22T02:35:44.292Z,60.02
2022-08-22T02:38:32.088Z,59.85
2022-08-22T02:41:11.443Z,59.84
2022-08-22T02:43:49.750Z,59.51
2022-08-22T02:46:29.375Z,57.60
2022-08-22T02:49:11.764Z,58.96
2022-08-22T02:51:52.905Z,64.49
2022-08-22T02:54:26.878Z,64.17
2022-08-22T02:57:11.390Z,62.96
2022-08-22T03:03:16.429Z,61.11
2022-08-22T03:06:00.529Z,64.09
2022-08-22T03:08:32.356Z,64.71
2022-08-22T03:11:19.551Z,63.17
2022-08-22T03:14:00.956Z,62.37
2022-08-22T03:16:38.153Z,61.76
2022-08-22T03:19:18.680Z,61.29
2022-08-22T03:21:56.988Z,60.87
2022-08-22T03:24:31.423Z,60.53
2022-08-22T03:27:05.763Z,60.28
2022-08-22T03:29:37.724Z,60.24
2022-08-22T03:32:13.877Z,60.25
2022-08-22T03:34:57.087Z,60.14
2022-08-22T03:37:36.869Z,60.20
2022-08-22T03:40:22.096Z,60.65
2022-08-22T03:43:21.860Z,60.48
2022-08-22T03:46:35.687Z,60.72
2022-08-22T03:49:32.692Z,60.88
2022-08-22T03:52:33.637Z,61.49
2022-08-22T03:55:20.617Z,61.20
2022-08-22T03:58:23.917Z,60.95
2022-08-22T04:01:19.348Z,60.73
2022-08-22T04:04:19.687Z,60.88
2022-08-22T04:07:32.377Z,60.90
2022-08-22T04:10:24.603Z,61.04
2022-08-22T04:13:26.693Z,61.20
2022-08-22T04:16:36.222Z,61.34
2022-08-22T04:19:33.408Z,61.33
2022-08-22T04:22:26.588Z,60.96
2022-08-22T04:24:59.326Z,61.20
2022-08-22T04:27:34.153Z,61.14
2022-08-22T04:30:10.654Z,60.77
2022-08-22T04:32:44.399Z,60.74
2022-08-22T04:35:18.152Z,60.86
2022-08-22T04:37:53.380Z,61.27
2022-08-22T04:40:25.777Z,61.53
2022-08-22T04:43:00.499Z,61.23
2022-08-22T04:45:38.608Z,61.15
2022-08-22T04:48:13.123Z,61.16
2022-08-22T04:50:50.625Z,61.19
2022-08-22T04:53:30.893Z,60.74
2022-08-22T04:56:07.878Z,60.73
2022-08-22T04:58:46.266Z,60.65
2022-08-22T05:01:17.974Z,60.41
2022-08-22T05:03:51.985Z,61.01
2022-08-22T05:06:25.812Z,60.90
2022-08-22T05:08:56.468Z,60.77
2022-08-22T05:11:25.263Z,60.66
2022-08-22T05:13:57.090Z,60.51
2022-08-22T05:16:30.392Z,60.68
2022-08-22T05:19:02.908Z,60.42
2022-08-22T05:21:35.482Z,60.67
2022-08-22T05:24:07.956Z,60.47
2022-08-22T05:26:40.402Z,60.62
2022-08-22T05:29:11.560Z,60.58
2022-08-22T05:31:46.241Z,60.97
2022-08-22T05:34:19.441Z,60.99
2022-08-22T05:36:54.038Z,61.41
2022-08-22T05:39:25.372Z,61.79
2022-08-22T05:42:00.796Z,62.08
2022-08-22T05:44:32.723Z,61.98
2022-08-22T05:47:04.693Z,61.81
2022-08-22T05:49:39.556Z,61.62
2022-08-22T05:52:19.097Z,61.51
2022-08-22T05:54:56.897Z,61.68
2022-08-22T05:57:29.999Z,61.81
2022-08-22T06:00:04.783Z,61.73
2022-08-22T06:02:53.420Z,61.88
2022-08-22T06:05:27.126Z,61.56
2022-08-22T06:08:02.327Z,61.82
2022-08-22T06:10:39.711Z,62.10
2022-08-22T06:13:12.899Z,62.06
2022-08-22T06:15:47.801Z,61.62
2022-08-22T06:18:24.519Z,61.24
2022-08-22T06:20:55.708Z,61.09
2022-08-22T06:23:28.468Z,60.85
2022-08-22T06:26:00.255Z,60.82
2022-08-22T06:28:34.060Z,61.00
2022-08-22T06:31:04.309Z,61.36
2022-08-22T06:33:43.287Z,61.69
2022-08-22T06:36:33.216Z,62.17
2022-08-22T06:39:11.637Z,62.10
2022-08-22T06:41:45.657Z,61.81
2022-08-22T06:44:18.056Z,61.44
2022-08-22T06:46:50.088Z,61.64
2022-08-22T06:49:20.578Z,61.40
2022-08-22T06:51:50.446Z,61.40
2022-08-22T06:54:21.379Z,61.43
2022-08-22T06:56:52.588Z,61.49
2022-08-22T06:59:22.973Z,61.32
2022-08-22T07:01:56.316Z,61.35
2022-08-22T07:04:27.253Z,61.42
2022-08-22T07:06:57.108Z,60.90
2022-08-22T07:09:27.985Z,60.88
2022-08-22T07:11:59.629Z,61.27
2022-08-22T07:14:32.009Z,60.62
2022-08-22T07:17:02.924Z,60.82
2022-08-22T07:19:36.501Z,60.93
2022-08-22T07:22:15.010Z,61.11
2022-08-22T07:24:47.813Z,61.24
2022-08-22T07:27:25.642Z,61.76
2022-08-22T07:30:02.539Z,62.33
2022-08-22T07:32:42.533Z,61.66
2022-08-22T07:35:15.079Z,61.27
2022-08-22T07:37:59.096Z,61.23
2022-08-22T07:40:35.637Z,61.25
2022-08-22T07:43:16.999Z,60.86
2022-08-22T07:45:50.274Z,60.58
2022-08-22T07:48:26.170Z,60.28
2022-08-22T07:51:01.317Z,60.22
2022-08-22T07:53:37.288Z,59.95
2022-08-22T07:56:09.277Z,60.44
2022-08-22T07:58:41.337Z,60.81
2022-08-22T08:01:14.626Z,60.42
2022-08-22T08:03:51.002Z,60.02
2022-08-22T08:06:22.487Z,59.81
2022-08-22T08:08:52.020Z,58.90
2022-08-22T08:11:22.626Z,59.48
2022-08-22T08:13:57.540Z,63.52
2022-08-22T08:16:28.499Z,63.67
2022-08-22T08:18:59.692Z,62.55
2022-08-22T08:21:31.535Z,61.58
2022-08-22T08:24:01.038Z,61.80
2022-08-22T08:26:33.690Z,61.75
2022-08-22T08:29:03.282Z,62.04
2022-08-22T08:31:37.311Z,61.93
2022-08-22T08:34:14.758Z,61.82
2022-08-22T08:36:51.035Z,61.85
2022-08-22T08:39:24.829Z,61.28
2022-08-22T08:42:32.778Z,61.07
2022-08-22T08:45:18.367Z,60.71
2022-08-22T08:48:03.798Z,60.41
2022-08-22T08:50:46.613Z,60.63
2022-08-22T08:53:50.247Z,60.56
2022-08-22T08:56:27.256Z,60.37
2022-08-22T08:59:03.341Z,60.67
2022-08-22T09:02:09.513Z,60.69
2022-08-22T09:05:19.587Z,60.50
2022-08-22T09:08:18.507Z,60.52
2022-08-22T09:11:27.054Z,60.46
2022-08-22T09:14:11.726Z,60.56
2022-08-22T09:17:17.121Z,60.60
2022-08-22T09:20:17.790Z,60.09
2022-08-22T09:23:13.857Z,59.93
2022-08-22T09:25:44.349Z,59.13
2022-08-22T09:28:19.168Z,58.43
2022-08-22T09:31:22.208Z,59.80
2022-08-22T09:33:58.789Z,66.39
2022-08-22T09:36:33.971Z,63.46
2022-08-22T09:39:11.509Z,61.92
2022-08-22T09:41:51.596Z,61.57
2022-08-22T09:44:30.181Z,61.22
2022-08-22T09:47:10.219Z,60.69
2022-08-22T09:49:48.273Z,61.37
2022-08-22T09:52:33.927Z,61.91
2022-08-22T09:55:18.249Z,61.96
2022-08-22T09:58:12.152Z,62.01
2022-08-22T10:00:54.602Z,61.06
2022-08-22T10:03:51.392Z,61.12
2022-08-22T10:06:26.571Z,61.64
2022-08-22T10:09:03.841Z,62.16
2022-08-22T10:11:34.471Z,61.94
2022-08-22T10:14:14.772Z,61.20
2022-08-22T10:17:01.234Z,61.16
2022-08-22T10:19:36.281Z,59.68
2022-08-22T10:22:19.895Z,56.88
2022-08-22T10:24:59.562Z,58.96
2022-08-22T10:27:48.566Z,63.55
2022-08-22T10:30:20.424Z,62.86
2022-08-22T10:32:57.493Z,60.66
2022-08-22T10:35:33.904Z,60.09
2022-08-22T10:38:10.654Z,59.77
2022-08-22T10:40:47.733Z,57.27
2022-08-22T10:43:28.844Z,60.84
2022-08-22T10:46:03.559Z,59.80
2022-08-22T10:48:40.279Z,63.82
2022-08-22T10:51:31.281Z,61.93
2022-08-22T10:54:28.701Z,63.33
2022-08-22T10:57:22.718Z,60.13
2022-08-22T11:00:01.538Z,59.23
2022-08-22T11:02:45.095Z,61.09
2022-08-22T11:05:25.436Z,62.53
2022-08-22T11:08:06.924Z,59.94
2022-08-22T11:10:50.582Z,58.75
2022-08-22T11:13:28.824Z,60.11
2022-08-22T11:16:06.187Z,64.49
2022-08-22T11:18:57.956Z,63.64
2022-08-22T11:21:48.315Z,63.00
2022-08-22T11:24:56.775Z,62.35
2022-08-22T11:27:40.207Z,61.78
2022-08-22T11:30:18.743Z,62.76
2022-08-22T11:33:09.648Z,62.69
2022-08-22T11:35:42.701Z,63.35
2022-08-22T11:38:23.716Z,63.48
2022-08-22T11:41:00.897Z,63.16
2022-08-22T11:43:49.968Z,62.28
2022-08-22T11:46:23.282Z,63.20
2022-08-22T11:49:06.454Z,63.33
2022-08-22T11:51:57.833Z,62.97
2022-08-22T11:54:39.063Z,62.59
2022-08-22T11:57:13.465Z,62.61
2022-08-22T12:00:06.061Z,62.59
2022-08-22T12:02:47.494Z,61.56
2022-08-22T12:05:24.508Z,61.80
2022-08-22T12:08:03.456Z,61.92
2022-08-22T12:10:36.885Z,62.30
2022-08-22T12:13:11.291Z,61.25
2022-08-22T12:15:47.438Z,60.44
2022-08-22T12:18:41.911Z,58.60
2022-08-22T12:21:31.793Z,59.64
2022-08-22T12:24:19.423Z,64.34
2022-08-22T12:27:07.892Z,65.92
2022-08-22T12:29:48.523Z,64.67
2022-08-22T12:32:52.196Z,64.93
2022-08-22T12:35:33.912Z,64.59
2022-08-22T12:38:28.292Z,64.64
2022-08-22T12:41:28.433Z,64.34
2022-08-22T12:44:24.099Z,64.25
2022-08-22T12:47:14.412Z,64.29
2022-08-22T12:50:05.426Z,64.69
2022-08-22T12:52:58.781Z,64.99
2022-08-22T12:55:45.719Z,64.97
2022-08-22T12:58:30.554Z,65.32
2022-08-22T13:01:06.513Z,65.78
2022-08-22T13:03:41.402Z,65.67
2022-08-22T13:06:48.598Z,66.05
2022-08-22T13:09:28.518Z,66.69
2022-08-22T13:12:03.626Z,65.55
2022-08-22T13:14:34.144Z,66.21
2022-08-22T13:17:10.034Z,65.90
2022-08-22T13:20:08.675Z,65.47
2022-08-22T13:22:41.551Z,65.44
2022-08-22T13:25:26.136Z,64.69
2022-08-22T13:27:55.673Z,64.60
2022-08-22T13:30:30.962Z,63.98
2022-08-22T13:33:08.944Z,63.17
2022-08-22T13:35:44.548Z,62.47
2022-08-22T13:38:25.883Z,62.56
2022-08-22T13:40:57.222Z,61.99
2022-08-22T13:43:26.683Z,61.52
2022-08-22T13:45:58.619Z,60.97
2022-08-22T13:48:47.289Z,61.66
2022-08-22T13:51:24.025Z,62.13
2022-08-22T13:54:00.962Z,60.65
2022-08-22T13:56:39.186Z,59.66
2022-08-22T13:59:47.192Z,58.80
2022-08-22T14:02:31.003Z,62.07
2022-08-22T14:05:07.531Z,61.34
2022-08-22T14:07:44.281Z,60.94
2022-08-22T14:10:21.955Z,61.32
2022-08-22T14:13:20.947Z,61.73
2022-08-22T14:15:49.434Z,62.03
2022-08-22T14:18:31.470Z,61.93
2022-08-22T14:21:40.536Z,61.85
2022-08-22T14:24:18.970Z,62.05
2022-08-22T14:26:58.135Z,62.13
2022-08-22T14:29:31.727Z,61.47
2022-08-22T14:32:04.758Z,61.23
2022-08-22T14:34:42.017Z,60.69
2022-08-22T14:37:22.121Z,60.69
2022-08-22T14:39:56.441Z,60.83
2022-08-22T14:42:30.654Z,61.48
2022-08-22T14:45:06.434Z,62.31
2022-08-22T14:47:55.290Z,63.31
2022-08-22T14:50:42.522Z,64.39
2022-08-22T14:53:22.172Z,64.86
2022-08-22T14:56:00.701Z,65.48
2022-08-22T14:58:32.635Z,66.15
2022-08-22T15:01:10.546Z,66.63
2022-08-22T15:03:42.712Z,66.86
2022-08-22T15:06:16.227Z,67.36
2022-08-22T15:08:51.374Z,67.99
2022-08-22T15:11:26.468Z,67.97
2022-08-22T16:14:23.542Z,74.17
2022-08-22T16:17:03.794Z,74.28
2022-08-22T16:19:39.783Z,72.71
2022-08-22T16:22:15.723Z,71.25
2022-08-22T16:25:10.295Z,70.73
2022-08-22T16:27:58.751Z,70.68
2022-08-22T16:30:38.648Z,70.60
2022-08-22T16:33:17.654Z,70.63
2022-08-22T16:36:25.088Z,70.58
2022-08-22T16:38:59.003Z,70.80
2022-08-22T16:41:40.325Z,70.81
2022-08-22T16:44:40.140Z,70.55
2022-08-22T16:47:18.763Z,70.50
2022-08-22T16:50:05.906Z,70.95
2022-08-22T16:52:56.254Z,71.05
2022-08-22T16:55:50.008Z,70.82
2022-08-22T16:58:56.539Z,70.40
2022-08-22T17:01:48.075Z,70.37
2022-08-22T17:04:33.245Z,70.54
2022-08-22T17:07:15.776Z,70.33
2022-08-22T17:10:12.235Z,70.35
2022-08-22T17:13:00.462Z,69.80
2022-08-22T17:15:44.851Z,69.71
2022-08-22T17:18:35.110Z,69.69
2022-08-22T17:21:14.560Z,69.80
2022-08-22T17:23:53.678Z,69.69
2022-08-22T17:26:46.114Z,69.91
2022-08-22T17:29:27.537Z,70.11
2022-08-22T17:32:11.854Z,70.40
2022-08-22T17:34:59.720Z,70.63
2022-08-22T17:37:45.581Z,70.86
2022-08-22T17:40:32.073Z,70.45
2022-08-22T17:43:16.333Z,70.63
2022-08-22T17:46:02.934Z,71.62
2022-08-22T17:48:48.064Z,71.88
2022-08-22T17:51:28.831Z,71.61
2022-08-22T17:54:04.040Z,71.58
2022-08-22T17:56:44.345Z,71.27
2022-08-22T17:59:21.689Z,70.99
2022-08-22T18:01:59.759Z,70.49
2022-08-22T18:04:44.450Z,70.33
2022-08-22T18:07:35.451Z,70.47
2022-08-22T18:10:21.363Z,70.89
2022-08-22T18:13:06.174Z,71.67
2022-08-22T18:15:51.305Z,71.75
2022-08-22T18:18:32.051Z,71.47
2022-08-22T18:21:10.432Z,71.44
2022-08-22T18:23:45.989Z,71.43
2022-08-22T18:26:29.194Z,71.79
2022-08-22T18:29:09.302Z,71.56
2022-08-22T18:31:50.402Z,71.58
2022-08-22T18:34:26.428Z,71.85
2022-08-22T18:37:05.063Z,72.00
2022-08-22T18:39:54.752Z,72.40
2022-08-22T18:42:34.358Z,72.83
2022-08-22T18:45:07.777Z,73.07
2022-08-22T18:47:39.423Z,73.95
2022-08-22T18:50:31.263Z,73.94
2022-08-22T18:53:04.539Z,73.77
2022-08-22T18:55:56.192Z,74.25
2022-08-22T18:59:05.414Z,74.46
2022-08-22T19:01:52.450Z,74.75
2022-08-22T19:04:58.731Z,74.99
2022-08-22T19:07:51.099Z,74.92
2022-08-22T19:10:46.309Z,75.32
2022-08-22T19:13:36.170Z,75.61
2022-08-22T19:16:38.875Z,75.67
2022-08-22T19:19:17.358Z,75.59
2022-08-22T19:25:28.771Z,76.66
2022-08-22T19:28:22.484Z,76.59
2022-08-22T19:30:55.386Z,76.62
2022-08-22T19:33:34.680Z,77.32
2022-08-22T19:36:13.138Z,77.51
2022-08-22T19:39:01.073Z,77.41
2022-08-22T19:41:45.124Z,77.23
2022-08-22T19:44:33.019Z,76.85
2022-08-22T19:47:11.189Z,76.83
2022-08-22T19:49:44.120Z,76.91
2022-08-22T19:52:25.755Z,77.17
2022-08-22T19:55:03.000Z,77.24
2022-08-22T19:57:41.627Z,77.12
2022-08-22T20:00:14.179Z,77.40
2022-08-22T20:02:58.124Z,77.42
2022-08-22T20:05:34.417Z,76.94
2022-08-22T20:08:18.798Z,77.16
2022-08-22T20:10:58.253Z,77.18
2022-08-22T20:13:30.536Z,77.49
2022-08-22T20:16:10.611Z,77.48
2022-08-22T20:18:53.496Z,77.35
2022-08-22T20:21:43.337Z,77.01
2022-08-22T20:24:16.020Z,77.43
2022-08-22T20:27:10.024Z,77.63
2022-08-22T20:29:36.337Z,77.42
2022-08-22T20:32:06.186Z,77.04
2022-08-22T20:34:38.665Z,77.33
2022-08-22T20:37:29.524Z,77.57
2022-08-22T20:40:07.635Z,77.52
2022-08-22T20:42:59.378Z,77.45
2022-08-22T20:45:30.671Z,77.54
2022-08-22T20:48:02.206Z,77.55
2022-08-22T20:50:32.495Z,77.80
2022-08-22T20:53:14.993Z,77.41
2022-08-22T20:55:53.077Z,77.32
2022-08-22T20:58:24.334Z,77.55
2022-08-22T21:00:56.137Z,77.49
2022-08-22T21:03:36.891Z,77.77
2022-08-22T21:06:13.588Z,77.76
2022-08-22T21:08:43.311Z,77.92
2022-08-22T21:11:40.529Z,77.87
2022-08-22T21:14:19.527Z,77.67
2022-08-22T21:16:48.194Z,77.88
2022-08-22T21:19:24.020Z,77.69
2022-08-22T21:22:09.482Z,77.81
2022-08-22T21:24:38.033Z,77.93
2022-08-22T21:27:07.213Z,78.32
2022-08-22T21:29:44.132Z,78.18
2022-08-22T21:32:23.167Z,78.10
2022-08-22T21:34:52.220Z,78.55
2022-08-22T21:37:26.343Z,78.42
2022-08-22T21:40:03.085Z,77.90
2022-08-22T21:42:35.127Z,77.59
2022-08-22T21:45:09.670Z,77.27
2022-08-22T21:47:40.257Z,77.11
2022-08-22T21:50:24.277Z,76.92
2022-08-22T21:53:11.812Z,76.32
2022-08-22T21:55:42.440Z,76.53
2022-08-22T21:58:35.978Z,76.00
2022-08-22T22:01:29.916Z,75.50
2022-08-22T22:03:59.441Z,76.27
2022-08-22T22:06:28.115Z,77.14
2022-08-22T22:08:56.272Z,77.34
2022-08-22T22:11:24.483Z,77.69
2022-08-22T22:13:52.906Z,77.40
2022-08-22T22:16:25.209Z,77.43
2022-08-22T22:18:53.628Z,77.70
2022-08-22T22:21:22.362Z,77.91
2022-08-22T22:23:51.828Z,78.36
2022-08-22T22:26:22.967Z,78.67
2022-08-22T22:28:50.548Z,78.58
2022-08-22T22:31:18.702Z,78.16
2022-08-22T22:33:46.968Z,77.88
2022-08-22T22:36:20.132Z,78.00
2022-08-22T22:38:48.707Z,77.34
2022-08-22T22:41:24.613Z,77.19
2022-08-22T22:43:53.137Z,77.01
2022-08-22T22:46:21.793Z,77.21
2022-08-22T22:48:50.454Z,76.96
2022-08-22T22:51:21.730Z,77.04
2022-08-22T22:53:50.261Z,76.66
2022-08-22T22:56:23.632Z,76.36
2022-08-22T22:59:00.625Z,75.94
2022-08-22T23:01:31.955Z,76.00
2022-08-22T23:04:05.678Z,76.00
2022-08-22T23:06:34.255Z,75.86
2022-08-22T23:09:02.997Z,75.98
2022-08-22T23:11:31.659Z,76.05
2022-08-22T23:14:01.737Z,76.09
2022-08-22T23:16:36.506Z,76.17
2022-08-22T23:19:08.964Z,76.19
2022-08-22T23:21:37.167Z,76.16
2022-08-22T23:24:06.050Z,76.12
2022-08-22T23:26:37.108Z,76.15
2022-08-22T23:29:06.156Z,76.25
2022-08-22T23:31:40.962Z,76.43
2022-08-22T23:34:12.620Z,76.69
2022-08-22T23:36:43.125Z,76.67
2022-08-22T23:39:13.053Z,76.48
2022-08-22T23:41:42.133Z,76.59
2022-08-22T23:44:13.772Z,76.74
2022-08-22T23:46:42.984Z,76.91
2022-08-22T23:49:13.502Z,77.01
2022-08-22T23:51:43.006Z,77.07
2022-08-22T23:54:12.131Z,77.26
2022-08-22T23:56:43.985Z,77.44
2022-08-22T23:59:14.453Z,77.70
